createdAt,value
2023-05-09T00:00:14.027Z,77.23
2023-05-09T00:02:41.386Z,78.38
2023-05-09T00:05:08.587Z,78.70
2023-05-09T00:07:35.198Z,79.38
2023-05-09T00:10:01.790Z,79.80
2023-05-09T00:12:28.589Z,78.67
2023-05-09T00:14:56.830Z,80.66
2023-05-09T00:17:25.640Z,79.59
2023-05-09T00:19:53.094Z,81.61
2023-05-09T00:22:23.181Z,82.84
2023-05-09T00:24:50.580Z,83.21
2023-05-09T00:27:17.445Z,82.71
2023-05-09T00:29:44.048Z,83.75
2023-05-09T00:32:11.572Z,84.63
2023-05-09T00:34:38.194Z,83.23
2023-05-09T00:37:04.750Z,83.67
2023-05-09T00:39:31.346Z,84.62
2023-05-09T00:41:58.036Z,85.13
2023-05-09T00:44:24.668Z,84.06
2023-05-09T00:46:51.292Z,85.36
2023-05-09T00:49:17.910Z,85.61
2023-05-09T00:51:44.509Z,85.19
2023-05-09T00:54:12.091Z,86.26
2023-05-09T00:56:39.158Z,85.38
2023-05-09T00:59:06.506Z,85.57
2023-05-09T01:01:33.258Z,87.47
2023-05-09T01:04:00.137Z,84.41
2023-05-09T01:06:41.790Z,84.34
2023-05-09T01:09:47.685Z,86.52
2023-05-09T01:12:31.485Z,86.22
2023-05-09T01:15:16.906Z,86.04
2023-05-09T01:18:01.264Z,87.05
2023-05-09T01:20:38.299Z,85.06
2023-05-09T01:23:27.504Z,86.10
2023-05-09T01:26:10.515Z,86.43
2023-05-09T01:28:37.068Z,87.68
2023-05-09T01:31:05.626Z,85.63
2023-05-09T01:33:36.417Z,86.09
2023-05-09T01:36:06.951Z,86.92
2023-05-09T01:38:36.470Z,85.48
2023-05-09T01:41:05.473Z,84.66
2023-05-09T01:43:33.731Z,85.99
2023-05-09T01:46:02.238Z,85.59
2023-05-09T01:48:31.262Z,86.19
2023-05-09T01:50:59.405Z,87.17
2023-05-09T01:53:28.154Z,88.41
2023-05-09T01:55:56.699Z,86.75
2023-05-09T01:58:25.813Z,89.04
2023-05-09T02:00:53.080Z,88.17
2023-05-09T02:03:21.633Z,87.48
2023-05-09T02:05:50.050Z,87.09
2023-05-09T02:08:18.951Z,88.02
2023-05-09T02:10:47.533Z,88.33
2023-05-09T02:13:14.284Z,86.58
2023-05-09T02:15:41.903Z,88.81
2023-05-09T02:18:08.542Z,87.74
2023-05-09T02:20:36.068Z,87.89
2023-05-09T02:23:03.361Z,86.34
2023-05-09T02:25:30.607Z,86.95
2023-05-09T02:27:59.502Z,86.52
2023-05-09T02:30:26.952Z,87.22
2023-05-09T02:32:59.888Z,88.00
2023-05-09T02:35:28.594Z,88.76
2023-05-09T02:37:57.229Z,89.00
2023-05-09T02:40:26.325Z,88.97
2023-05-09T02:42:52.903Z,87.79
2023-05-09T02:45:19.668Z,86.93
2023-05-09T02:47:46.303Z,88.17
2023-05-09T02:50:13.104Z,87.36
2023-05-09T02:52:39.801Z,86.48
2023-05-09T02:55:07.544Z,87.06
2023-05-09T02:57:34.190Z,87.26
2023-05-09T03:00:00.856Z,88.11
2023-05-09T03:02:27.552Z,89.45
2023-05-09T03:04:54.181Z,90.74
2023-05-09T03:07:20.779Z,89.86
2023-05-09T03:09:47.372Z,90.26
2023-05-09T03:12:14.038Z,89.44
2023-05-09T03:14:40.732Z,89.75
2023-05-09T03:17:07.444Z,89.88
2023-05-09T03:19:34.221Z,90.33
2023-05-09T03:22:01.003Z,89.08
2023-05-09T03:24:30.416Z,88.96
2023-05-09T03:26:57.414Z,89.76
2023-05-09T03:29:24.083Z,88.49
2023-05-09T03:31:50.798Z,89.63
2023-05-09T03:34:17.619Z,89.97
2023-05-09T03:36:44.635Z,88.33
2023-05-09T03:39:11.560Z,87.62
2023-05-09T03:41:38.264Z,89.13
2023-05-09T03:44:05.634Z,89.67
2023-05-09T03:46:32.423Z,87.28
2023-05-09T03:48:59.082Z,88.80
2023-05-09T03:51:25.711Z,89.13
2023-05-09T03:53:52.376Z,88.55
2023-05-09T03:56:19.086Z,88.96
2023-05-09T03:58:45.708Z,89.39
2023-05-09T04:01:12.357Z,88.75
2023-05-09T04:03:39.200Z,86.75
2023-05-09T04:06:06.253Z,88.14
2023-05-09T04:08:33.258Z,86.78
2023-05-09T04:11:00.990Z,87.57
2023-05-09T04:13:28.293Z,85.07
2023-05-09T04:15:55.017Z,85.18
2023-05-09T04:18:22.201Z,86.07
2023-05-09T04:20:48.786Z,84.88
2023-05-09T04:23:15.422Z,85.03
2023-05-09T04:25:42.554Z,85.22
2023-05-09T04:28:09.122Z,86.14
2023-05-09T04:30:36.539Z,84.88
2023-05-09T04:33:03.339Z,86.04
2023-05-09T04:35:29.985Z,84.29
2023-05-09T04:37:56.587Z,87.00
2023-05-09T04:40:24.851Z,87.12
2023-05-09T04:42:52.816Z,85.52
2023-05-09T04:45:19.421Z,83.30
2023-05-09T04:47:46.528Z,84.91
2023-05-09T04:50:13.517Z,84.79
2023-05-09T04:52:40.121Z,83.54
2023-05-09T04:55:08.150Z,82.10
2023-05-09T04:57:34.803Z,80.29
2023-05-09T05:00:01.372Z,80.67
2023-05-09T05:02:30.956Z,80.41
2023-05-09T05:05:10.204Z,81.06
2023-05-09T05:07:38.585Z,80.10
2023-05-09T05:10:06.595Z,79.42
2023-05-09T05:12:33.271Z,77.54
2023-05-09T05:15:00.064Z,75.47
2023-05-09T05:17:29.517Z,76.14
2023-05-09T05:19:59.301Z,77.92
2023-05-09T05:22:25.928Z,75.17
2023-05-09T05:24:52.534Z,75.33
2023-05-09T05:27:19.240Z,74.34
2023-05-09T05:29:45.900Z,71.32
2023-05-09T05:32:12.571Z,71.88
2023-05-09T05:34:39.731Z,70.87
2023-05-09T05:37:06.336Z,71.02
2023-05-09T05:39:33.140Z,69.27
2023-05-09T05:41:59.796Z,68.75
2023-05-09T05:44:26.526Z,67.88
2023-05-09T05:46:53.139Z,67.79
2023-05-09T05:49:19.793Z,66.55
2023-05-09T05:51:46.397Z,65.95
2023-05-09T05:54:13.047Z,65.08
2023-05-09T05:56:39.655Z,66.22
2023-05-09T05:59:06.646Z,65.97
2023-05-09T06:01:33.336Z,63.77
2023-05-09T06:04:00.187Z,64.07
2023-05-09T06:06:34.756Z,63.73
2023-05-09T06:09:01.337Z,63.55
2023-05-09T06:11:27.928Z,60.72
2023-05-09T06:13:54.551Z,60.36
2023-05-09T06:16:21.502Z,60.52
2023-05-09T06:18:48.766Z,59.28
2023-05-09T06:21:15.374Z,58.76
2023-05-09T06:23:56.899Z,60.26
2023-05-09T06:26:28.576Z,57.54
2023-05-09T06:28:55.215Z,56.79
2023-05-09T06:31:22.548Z,56.59
2023-05-09T06:33:50.844Z,56.25
2023-05-09T06:36:17.538Z,56.01
2023-05-09T06:38:44.168Z,55.72
2023-05-09T06:41:10.789Z,56.20
2023-05-09T06:43:37.344Z,56.05
2023-05-09T06:46:04.416Z,54.67
2023-05-09T06:48:31.096Z,55.89
2023-05-09T06:50:57.692Z,56.18
2023-05-09T06:53:24.458Z,53.27
2023-05-09T06:55:51.118Z,52.97
2023-05-09T06:58:17.717Z,52.03
2023-05-09T07:00:44.413Z,53.11
2023-05-09T07:03:11.721Z,52.72
2023-05-09T07:05:56.351Z,52.91
2023-05-09T07:08:22.951Z,52.50
2023-05-09T07:10:49.573Z,53.94
2023-05-09T07:13:16.391Z,52.74
2023-05-09T07:15:43.564Z,51.82
2023-05-09T07:18:10.454Z,52.80
2023-05-09T07:20:37.216Z,52.73
2023-05-09T07:23:04.664Z,51.14
2023-05-09T07:25:31.362Z,52.20
2023-05-09T07:27:58.198Z,50.53
2023-05-09T07:30:25.356Z,51.02
2023-05-09T07:32:52.377Z,49.64
2023-05-09T07:35:20.097Z,50.11
2023-05-09T07:37:46.820Z,49.93
2023-05-09T07:40:14.154Z,49.03
2023-05-09T07:42:41.121Z,51.10
2023-05-09T07:45:08.360Z,51.07
2023-05-09T07:47:35.064Z,49.60
2023-05-09T07:50:01.955Z,49.22
2023-05-09T07:52:28.965Z,48.75
2023-05-09T07:54:55.755Z,49.05
2023-05-09T07:57:23.002Z,49.38
2023-05-09T07:59:49.583Z,49.67
2023-05-09T08:02:16.228Z,47.93
2023-05-09T08:04:42.951Z,46.39
2023-05-09T08:07:09.629Z,46.41
2023-05-09T08:09:36.310Z,47.33
2023-05-09T08:12:03.046Z,46.51
2023-05-09T08:14:29.886Z,45.38
2023-05-09T08:16:56.567Z,44.77
2023-05-09T08:19:26.191Z,44.78
2023-05-09T08:21:53.468Z,43.09
2023-05-09T08:24:20.356Z,43.62
2023-05-09T08:26:47.250Z,44.13
2023-05-09T08:29:13.997Z,42.22
2023-05-09T08:31:41.127Z,44.07
2023-05-09T08:34:07.946Z,43.46
2023-05-09T08:36:34.637Z,42.61
2023-05-09T08:39:01.284Z,43.01
2023-05-09T08:41:31.059Z,39.92
2023-05-09T08:43:58.313Z,38.43
2023-05-09T08:46:31.536Z,40.51
2023-05-09T08:48:59.796Z,39.75
2023-05-09T08:51:27.564Z,38.11
2023-05-09T08:53:54.795Z,38.78
2023-05-09T08:56:21.571Z,37.57
2023-05-09T08:58:48.233Z,37.43
2023-05-09T09:01:16.413Z,37.57
2023-05-09T09:03:47.733Z,39.73
2023-05-09T09:06:14.663Z,38.69
2023-05-09T09:08:42.413Z,37.68
2023-05-09T09:11:13.392Z,36.47
2023-05-09T09:13:41.984Z,36.01
2023-05-09T09:16:14.760Z,36.00
2023-05-09T09:18:41.451Z,36.02
2023-05-09T09:21:12.214Z,35.93
2023-05-09T09:23:42.971Z,35.49
2023-05-09T09:26:09.780Z,35.94
2023-05-09T09:28:36.536Z,36.92
2023-05-09T09:31:19.892Z,35.36
2023-05-09T09:33:47.273Z,36.90
2023-05-09T09:36:13.882Z,35.59
2023-05-09T09:38:43.828Z,36.54
2023-05-09T09:41:12.394Z,36.13
2023-05-09T09:43:39.026Z,35.75
2023-05-09T09:46:06.227Z,35.12
2023-05-09T09:48:34.811Z,35.62
2023-05-09T09:51:11.552Z,34.46
2023-05-09T09:53:44.966Z,33.86
2023-05-09T09:56:11.802Z,34.20
2023-05-09T09:58:38.631Z,35.12
2023-05-09T10:01:16.837Z,34.43
2023-05-09T10:03:48.210Z,32.66
2023-05-09T10:06:16.881Z,33.44
2023-05-09T10:08:49.078Z,34.01
2023-05-09T10:11:16.370Z,35.70
2023-05-09T10:13:44.684Z,33.33
2023-05-09T10:16:11.762Z,33.24
2023-05-09T10:18:42.568Z,33.22
2023-05-09T10:21:13.071Z,32.87
2023-05-09T10:23:43.136Z,34.79
2023-05-09T10:26:27.683Z,33.11
2023-05-09T10:29:01.274Z,31.89
2023-05-09T10:31:31.483Z,31.72
2023-05-09T10:34:02.128Z,32.90
2023-05-09T10:36:29.115Z,33.06
2023-05-09T10:38:56.332Z,32.83
2023-05-09T10:41:24.005Z,34.24
2023-05-09T10:43:51.174Z,33.97
2023-05-09T10:46:18.450Z,33.95
2023-05-09T10:48:45.874Z,33.12
2023-05-09T10:51:13.268Z,32.59
2023-05-09T10:53:49.979Z,32.43
2023-05-09T10:56:30.684Z,32.47
2023-05-09T10:58:57.940Z,33.14
2023-05-09T11:01:32.866Z,32.89
2023-05-09T11:04:01.054Z,32.68
2023-05-09T11:06:47.614Z,34.33
2023-05-09T11:09:34.523Z,33.23
2023-05-09T11:12:07.124Z,33.33
2023-05-09T11:14:45.210Z,32.38
2023-05-09T11:17:28.690Z,33.77
2023-05-09T11:20:32.103Z,33.11
2023-05-09T11:23:06.645Z,32.80
2023-05-09T11:25:39.379Z,32.52
2023-05-09T11:28:31.213Z,33.04
2023-05-09T11:31:18.155Z,32.80
2023-05-09T11:33:49.197Z,32.35
2023-05-09T11:36:32.294Z,32.59
2023-05-09T11:39:09.860Z,32.74
2023-05-09T11:42:04.257Z,33.06
2023-05-09T11:44:35.317Z,31.72
2023-05-09T11:47:02.032Z,31.18
2023-05-09T11:49:31.954Z,31.40
2023-05-09T11:51:59.850Z,31.90
2023-05-09T11:54:26.665Z,31.56
2023-05-09T11:56:53.302Z,31.24
2023-05-09T11:59:20.508Z,30.02
2023-05-09T12:01:48.345Z,31.38
2023-05-09T12:04:15.019Z,30.58
2023-05-09T12:06:48.709Z,31.36
2023-05-09T12:09:16.270Z,31.10
2023-05-09T12:11:50.254Z,30.91
2023-05-09T12:14:30.687Z,29.93
2023-05-09T12:16:57.699Z,29.13
2023-05-09T12:19:27.833Z,29.63
2023-05-09T12:21:59.078Z,30.69
2023-05-09T12:24:27.114Z,31.12
2023-05-09T12:26:54.724Z,30.64
2023-05-09T12:29:22.614Z,29.39
2023-05-09T12:31:50.221Z,29.65
2023-05-09T12:34:17.199Z,29.53
2023-05-09T12:36:50.705Z,29.61
2023-05-09T12:39:19.003Z,29.59
2023-05-09T12:41:53.884Z,29.76
2023-05-09T12:44:30.095Z,29.97
2023-05-09T12:47:04.643Z,30.14
2023-05-09T12:49:32.231Z,30.38
2023-05-09T12:52:03.018Z,30.91
2023-05-09T12:54:31.197Z,30.32
2023-05-09T12:56:59.134Z,30.07
2023-05-09T12:59:28.498Z,30.65
2023-05-09T13:02:00.112Z,30.80
2023-05-09T13:04:30.032Z,30.06
2023-05-09T13:06:58.670Z,30.30
2023-05-09T13:09:27.486Z,29.44
2023-05-09T13:11:55.438Z,29.25
2023-05-09T13:14:23.397Z,30.45
2023-05-09T13:16:50.131Z,29.70
2023-05-09T13:19:16.937Z,29.57
2023-05-09T13:21:43.630Z,30.08
2023-05-09T13:24:10.433Z,30.82
2023-05-09T13:26:37.079Z,29.87
2023-05-09T13:29:03.885Z,30.01
2023-05-09T13:31:31.344Z,31.26
2023-05-09T13:33:57.968Z,31.46
2023-05-09T13:36:24.664Z,29.74
2023-05-09T13:38:51.350Z,30.29
2023-05-09T13:41:21.758Z,30.31
2023-05-09T13:43:48.563Z,29.55
2023-05-09T13:46:15.664Z,30.45
2023-05-09T13:48:42.498Z,31.22
2023-05-09T13:51:09.934Z,28.31
2023-05-09T13:53:38.886Z,28.63
2023-05-09T13:56:28.856Z,29.38
2023-05-09T13:58:55.438Z,29.22
2023-05-09T14:01:22.239Z,30.54
2023-05-09T14:03:49.210Z,28.94
2023-05-09T14:06:15.959Z,30.23
2023-05-09T14:08:42.590Z,29.90
2023-05-09T14:11:09.378Z,29.68
2023-05-09T14:13:35.974Z,30.07
2023-05-09T14:16:02.583Z,29.98
2023-05-09T14:18:29.274Z,30.20
2023-05-09T14:20:56.502Z,31.62
2023-05-09T14:23:23.266Z,31.00
2023-05-09T14:25:49.943Z,30.78
2023-05-09T14:28:16.741Z,30.73
2023-05-09T14:30:43.824Z,30.25
2023-05-09T14:33:10.447Z,30.70
2023-05-09T14:35:39.677Z,30.49
2023-05-09T14:38:07.777Z,31.23
2023-05-09T14:40:34.396Z,30.72
2023-05-09T14:43:02.636Z,30.85
2023-05-09T14:45:30.069Z,30.89
2023-05-09T14:47:57.189Z,30.28
2023-05-09T14:50:23.929Z,30.06
2023-05-09T14:52:53.537Z,30.10
2023-05-09T14:55:22.995Z,29.61
2023-05-09T14:57:49.851Z,29.74
2023-05-09T15:00:21.683Z,29.59
2023-05-09T15:02:49.991Z,29.88
2023-05-09T15:05:17.237Z,31.41
2023-05-09T15:07:43.832Z,30.31
2023-05-09T15:10:13.907Z,30.22
2023-05-09T15:12:40.848Z,30.15
2023-05-09T15:15:14.572Z,29.88
2023-05-09T15:17:41.343Z,30.87
2023-05-09T15:20:08.249Z,31.46
2023-05-09T15:22:34.941Z,31.20
2023-05-09T15:25:03.393Z,30.48
2023-05-09T15:27:31.450Z,31.33
2023-05-09T15:29:58.167Z,29.62
2023-05-09T15:32:24.904Z,30.39
2023-05-09T15:34:51.594Z,30.25
2023-05-09T15:37:18.485Z,29.94
2023-05-09T15:39:45.681Z,29.53
2023-05-09T15:42:13.212Z,29.91
2023-05-09T15:44:40.811Z,29.46
2023-05-09T15:47:07.948Z,29.27
2023-05-09T15:49:34.793Z,29.53
2023-05-09T15:52:05.864Z,29.42
2023-05-09T15:54:33.960Z,29.46
2023-05-09T15:57:00.875Z,29.19
2023-05-09T15:59:27.739Z,29.14
2023-05-09T16:01:55.487Z,27.38
2023-05-09T16:04:22.513Z,28.12
2023-05-09T16:06:49.097Z,27.82
2023-05-09T16:09:15.764Z,28.51
2023-05-09T16:11:42.443Z,28.87
2023-05-09T16:14:11.597Z,29.13
2023-05-09T16:16:39.552Z,28.13
2023-05-09T16:19:06.950Z,28.50
2023-05-09T16:21:33.771Z,27.84
2023-05-09T16:24:03.068Z,28.11
2023-05-09T16:26:29.837Z,27.83
2023-05-09T16:28:56.875Z,28.48
2023-05-09T16:31:27.470Z,28.46
2023-05-09T16:33:54.632Z,28.46
2023-05-09T16:36:22.137Z,29.68
2023-05-09T16:38:48.910Z,29.08
2023-05-09T16:41:16.013Z,29.78
2023-05-09T16:43:42.808Z,30.15
2023-05-09T16:46:09.660Z,29.84
2023-05-09T16:48:36.313Z,30.67
2023-05-09T16:51:03.317Z,30.43
2023-05-09T16:53:29.937Z,30.96
2023-05-09T16:55:56.969Z,31.09
2023-05-09T16:58:23.790Z,32.65
2023-05-09T17:00:50.965Z,33.47
2023-05-09T17:03:17.601Z,33.21
2023-05-09T17:05:44.285Z,34.18
2023-05-09T17:08:11.457Z,35.53
2023-05-09T17:10:39.441Z,36.49
2023-05-09T17:13:08.969Z,36.69
2023-05-09T17:15:35.793Z,35.90
2023-05-09T17:18:03.175Z,36.13
2023-05-09T17:20:30.186Z,35.89
2023-05-09T17:22:57.389Z,35.20
2023-05-09T17:25:23.960Z,33.81
2023-05-09T17:27:50.627Z,33.98
2023-05-09T17:30:18.794Z,33.87
2023-05-09T17:32:46.782Z,33.63
2023-05-09T17:35:13.935Z,33.96
2023-05-09T17:37:40.940Z,35.06
2023-05-09T17:40:08.125Z,34.47
2023-05-09T17:42:34.968Z,35.51
2023-05-09T17:45:01.720Z,35.06
2023-05-09T17:47:29.287Z,35.21
2023-05-09T17:49:55.959Z,35.69
2023-05-09T17:52:22.592Z,37.39
2023-05-09T17:54:49.203Z,37.97
2023-05-09T17:57:15.816Z,38.18
2023-05-09T17:59:42.425Z,38.58
2023-05-09T18:02:09.013Z,38.78
2023-05-09T18:04:35.670Z,39.98
2023-05-09T18:07:02.675Z,39.46
2023-05-09T18:09:29.310Z,41.27
2023-05-09T18:11:56.066Z,41.32
2023-05-09T18:14:22.697Z,42.81
2023-05-09T18:16:49.341Z,42.85
2023-05-09T18:19:15.975Z,43.62
2023-05-09T18:21:42.709Z,44.56
2023-05-09T18:24:09.429Z,43.83
2023-05-09T18:26:36.234Z,44.46
2023-05-09T18:29:02.827Z,45.74
2023-05-09T18:31:31.347Z,45.41
2023-05-09T18:33:58.176Z,46.52
2023-05-09T18:36:24.777Z,46.57
2023-05-09T18:38:51.454Z,47.01
2023-05-09T18:41:18.285Z,46.36
2023-05-09T18:43:47.816Z,46.76
2023-05-09T18:46:18.658Z,47.53
2023-05-09T18:48:46.464Z,47.20
2023-05-09T18:51:13.288Z,46.81
2023-05-09T18:53:40.549Z,46.69
2023-05-09T18:56:07.752Z,48.23
2023-05-09T18:58:34.592Z,48.18
2023-05-09T19:01:01.560Z,48.77
2023-05-09T19:03:29.597Z,48.65
2023-05-09T19:05:56.501Z,48.02
2023-05-09T19:08:23.271Z,48.75
2023-05-09T19:10:49.917Z,49.28
2023-05-09T19:13:16.817Z,48.68
2023-05-09T19:15:43.582Z,48.44
2023-05-09T19:18:10.778Z,48.70
2023-05-09T19:20:37.844Z,49.46
2023-05-09T19:23:04.589Z,49.15
2023-05-09T19:25:34.003Z,48.46
2023-05-09T19:28:01.234Z,48.64
2023-05-09T19:30:27.789Z,48.42
2023-05-09T19:32:54.923Z,47.85
2023-05-09T19:35:22.300Z,47.64
2023-05-09T19:37:49.033Z,48.28
2023-05-09T19:40:16.634Z,47.63
2023-05-09T19:42:43.589Z,48.22
2023-05-09T19:45:10.865Z,47.70
2023-05-09T19:47:37.827Z,48.44
2023-05-09T19:50:05.213Z,48.59
2023-05-09T19:52:32.019Z,48.39
2023-05-09T19:54:58.864Z,50.20
2023-05-09T19:57:25.702Z,49.49
2023-05-09T19:59:53.685Z,49.98
2023-05-09T20:02:20.788Z,49.27
2023-05-09T20:04:50.248Z,49.38
2023-05-09T20:07:17.637Z,49.78
2023-05-09T20:09:44.694Z,50.71
2023-05-09T20:12:13.186Z,50.86
2023-05-09T20:14:40.462Z,50.17
2023-05-09T20:17:07.228Z,50.51
2023-05-09T20:19:34.535Z,50.21
2023-05-09T20:22:01.958Z,50.19
2023-05-09T20:24:28.854Z,51.20
2023-05-09T20:26:55.947Z,51.55
2023-05-09T20:29:24.997Z,51.04
2023-05-09T20:31:52.252Z,51.03
2023-05-09T20:34:21.177Z,51.54
2023-05-09T20:36:51.604Z,50.52
2023-05-09T20:39:18.777Z,50.60
2023-05-09T20:41:46.656Z,51.58
2023-05-09T20:44:15.383Z,52.14
2023-05-09T20:46:42.238Z,52.20
2023-05-09T20:49:09.682Z,52.50
2023-05-09T20:51:36.867Z,52.19
2023-05-09T20:54:04.101Z,52.02
2023-05-09T20:56:31.021Z,51.86
2023-05-09T20:59:01.222Z,53.00
2023-05-09T21:01:28.079Z,52.99
2023-05-09T21:03:54.802Z,53.42
2023-05-09T21:06:21.873Z,53.74
2023-05-09T21:08:48.729Z,53.85
2023-05-09T21:11:15.627Z,54.62
2023-05-09T21:13:42.463Z,55.02
2023-05-09T21:16:09.200Z,55.20
2023-05-09T21:18:36.048Z,55.47
2023-05-09T21:21:02.867Z,56.24
2023-05-09T21:23:30.065Z,56.13
2023-05-09T21:25:57.237Z,56.08
2023-05-09T21:28:24.180Z,56.74
2023-05-09T21:30:53.164Z,56.77
2023-05-09T21:33:20.934Z,57.78
2023-05-09T21:35:47.828Z,57.49
2023-05-09T21:38:14.450Z,57.27
2023-05-09T21:40:41.323Z,57.41
2023-05-09T21:43:08.176Z,58.20
2023-05-09T21:45:35.022Z,58.19
2023-05-09T21:48:02.285Z,58.39
2023-05-09T21:50:29.495Z,58.55
2023-05-09T21:52:59.244Z,59.17
2023-05-09T21:55:26.215Z,59.93
2023-05-09T21:57:53.017Z,60.98
2023-05-09T22:00:20.165Z,60.84
2023-05-09T22:02:47.118Z,61.60
2023-05-09T22:05:13.862Z,60.93
2023-05-09T22:07:40.704Z,62.02
2023-05-09T22:10:08.932Z,61.61
2023-05-09T22:12:35.758Z,63.50
2023-05-09T22:15:03.310Z,63.90
2023-05-09T22:17:30.329Z,63.24
2023-05-09T22:19:57.361Z,64.57
2023-05-09T22:22:24.308Z,63.70
2023-05-09T22:24:51.379Z,63.86
2023-05-09T22:27:18.291Z,64.62
2023-05-09T22:29:46.070Z,64.92
2023-05-09T22:32:13.179Z,65.34
2023-05-09T22:34:40.057Z,65.06
2023-05-09T22:37:07.334Z,64.96
2023-05-09T22:39:47.256Z,65.16
2023-05-09T22:42:14.120Z,66.50
2023-05-09T22:44:41.040Z,66.26
2023-05-09T22:47:14.879Z,67.19
2023-05-09T22:49:43.095Z,66.49
2023-05-09T22:52:11.109Z,67.62
2023-05-09T22:54:37.979Z,67.70
2023-05-09T22:57:04.813Z,68.52
2023-05-09T22:59:32.256Z,68.62
2023-05-09T23:02:08.438Z,68.45
2023-05-09T23:04:37.377Z,68.30
2023-05-09T23:07:04.578Z,69.30
2023-05-09T23:09:31.647Z,68.89
2023-05-09T23:12:02.592Z,70.14
2023-05-09T23:14:29.196Z,69.11
2023-05-09T23:16:56.833Z,70.08
2023-05-09T23:19:26.367Z,70.51
2023-05-09T23:21:53.622Z,71.02
2023-05-09T23:24:20.405Z,71.93
2023-05-09T23:26:47.016Z,71.90
2023-05-09T23:29:13.917Z,72.72
2023-05-09T23:31:43.628Z,71.64
2023-05-09T23:34:10.379Z,72.29
2023-05-09T23:36:37.100Z,71.97
2023-05-09T23:39:06.160Z,72.94
2023-05-09T23:41:39.035Z,73.08
2023-05-09T23:44:07.838Z,73.53
2023-05-09T23:46:36.150Z,73.10
2023-05-09T23:49:13.572Z,73.48
2023-05-09T23:51:48.763Z,73.56
2023-05-09T23:54:16.737Z,73.11
2023-05-09T23:56:43.952Z,73.47
2023-05-09T23:59:21.419Z,74.22
